Time;durP1;ratioP1;P1;durP2;ratioP2;P2;SDS_P1;SDS_P2;PMS_P1;PMS_P2;Temp;Humidity;BMP_temperature;BMP_pressure;BME280_temperature;BME280_humidity;BME280_pressure;Samples;Min_cycle;Max_cycle;Signal;HPM_P1;HPM_P2
2022/12/23 00:00:53;;;;;;;49.63;27.90;;;;;;;;;;5070140;28;20534;-73
2022/12/23 00:03:20;;;;;;;49.58;30.67;;;;;;;;;;5074461;28;20132;-73
2022/12/23 00:05:46;;;;;;;58.97;32.72;;;;;;;;;;5080939;28;20039;-73
2022/12/23 00:08:12;;;;;;;57.63;31.67;;;;;;;;;;5090358;28;20112;-72
2022/12/23 00:10:38;;;;;;;50.63;29.27;;;;;;;;;;5084464;28;20040;-73
2022/12/23 00:15:49;;;;;;;58.83;31.00;;;;;;;;;;5087164;28;20061;-73
2022/12/23 00:18:15;;;;;;;53.38;31.10;;;;;;;;;;5096980;28;20036;-72
2022/12/23 00:20:41;;;;;;;53.90;29.95;;;;;;;;;;5089860;28;20031;-73
2022/12/23 00:23:07;;;;;;;53.03;29.08;;;;;;;;;;5103097;27;20063;-73
2022/12/23 00:25:42;;;;;;;48.53;30.35;;;;;;;;;;5072385;28;20490;-73
2022/12/23 00:28:19;;;;;;;51.50;30.40;;;;;;;;;;5076183;28;20040;-73
2022/12/23 00:30:53;;;;;;;49.25;28.77;;;;;;;;;;5093992;28;20044;-73
2022/12/23 00:33:21;;;;;;;48.33;28.40;;;;;;;;;;5071797;28;20128;-73
2022/12/23 00:35:47;;;;;;;48.42;29.63;;;;;;;;;;5093060;28;20421;-73
2022/12/23 00:38:13;;;;;;;55.08;30.05;;;;;;;;;;5058076;28;20040;-73
2022/12/23 00:43:25;;;;;;;53.55;27.67;;;;;;;;;;5099142;27;20040;-73
2022/12/23 00:45:51;;;;;;;54.17;31.67;;;;;;;;;;5086825;28;20097;-73
2022/12/23 00:51:02;;;;;;;51.97;30.85;;;;;;;;;;5079963;28;20051;-73
2022/12/23 00:53:28;;;;;;;54.10;29.25;;;;;;;;;;5075914;28;20101;-72
2022/12/23 00:55:54;;;;;;;52.10;31.05;;;;;;;;;;5088654;28;20442;-73
2022/12/23 00:58:21;;;;;;;62.40;36.00;;;;;;;;;;5074213;28;20051;-73
2022/12/23 01:06:17;;;;;;;50.28;29.88;;;;;;;;;;5091004;28;20073;-73
2022/12/23 01:08:43;;;;;;;65.05;32.28;;;;;;;;;;5089225;28;20035;-73
2022/12/23 01:11:11;;;;;;;54.85;30.60;;;;;;;;;;5093737;28;20059;-73
2022/12/23 01:13:38;;;;;;;57.63;33.78;;;;;;;;;;5090376;28;20051;-73
2022/12/23 01:16:06;;;;;;;60.45;31.77;;;;;;;;;;5091381;28;20443;-73
2022/12/23 01:18:33;;;;;;;62.80;35.08;;;;;;;;;;5075474;28;20047;-73
2022/12/23 01:21:04;;;;;;;64.75;36.47;;;;;;;;;;5100471;28;20104;-73
2022/12/23 01:23:30;;;;;;;64.20;35.50;;;;;;;;;;5080304;28;20043;-73
2022/12/23 01:25:57;;;;;;;65.55;37.15;;;;;;;;;;5076986;28;20528;-73
2022/12/23 01:28:23;;;;;;;64.78;32.58;;;;;;;;;;5109317;27;20063;-73
2022/12/23 01:30:49;;;;;;;70.25;40.33;;;;;;;;;;5077475;28;20134;-73
2022/12/23 01:33:15;;;;;;;67.40;35.10;;;;;;;;;;5116224;27;20050;-73
2022/12/23 01:35:42;;;;;;;71.15;37.05;;;;;;;;;;5096080;28;20071;-72
2022/12/23 01:38:08;;;;;;;68.88;36.38;;;;;;;;;;5072837;28;20050;-73
2022/12/23 01:40:39;;;;;;;58.80;32.67;;;;;;;;;;5093730;28;20141;-73
2022/12/23 01:43:05;;;;;;;58.50;32.30;;;;;;;;;;5077038;28;20044;-73
2022/12/23 01:45:31;;;;;;;69.63;37.08;;;;;;;;;;5055587;28;20520;-73
2022/12/23 01:48:16;;;;;;;71.55;40.15;;;;;;;;;;5098540;28;20047;-74
2022/12/23 01:51:09;;;;;;;70.07;39.00;;;;;;;;;;5073130;28;20039;-73
2022/12/23 01:53:38;;;;;;;72.83;38.80;;;;;;;;;;5085456;28;20081;-73
2022/12/23 01:56:07;;;;;;;70.30;37.00;;;;;;;;;;5095131;28;20040;-74
2022/12/23 01:58:33;;;;;;;71.60;36.13;;;;;;;;;;5080330;28;20043;-72
2022/12/23 02:03:45;;;;;;;67.22;36.13;;;;;;;;;;5086146;28;20473;-73
2022/12/23 02:09:16;;;;;;;64.55;32.08;;;;;;;;;;5096273;28;20086;-73
2022/12/23 02:12:01;;;;;;;62.97;32.53;;;;;;;;;;5096843;28;20040;-73
2022/12/23 02:17:33;;;;;;;61.80;31.58;;;;;;;;;;5073760;28;20047;-73
2022/12/23 02:20:08;;;;;;;52.38;31.95;;;;;;;;;;5100632;28;20031;-73
2022/12/23 02:22:49;;;;;;;63.17;33.22;;;;;;;;;;5094961;28;20044;-73
2022/12/23 02:25:16;;;;;;;60.80;32.28;;;;;;;;;;5084261;28;20043;-73
2022/12/23 02:27:42;;;;;;;66.28;31.58;;;;;;;;;;5093022;28;20093;-73
2022/12/23 02:30:23;;;;;;;61.83;31.00;;;;;;;;;;5077725;28;20109;-72
2022/12/23 02:32:55;;;;;;;50.97;28.23;;;;;;;;;;5071184;28;20190;-72
2022/12/23 02:35:28;;;;;;;54.47;31.35;;;;;;;;;;5084085;28;20035;-73
2022/12/23 02:38:11;;;;;;;56.35;31.77;;;;;;;;;;5104518;28;20142;-73
2022/12/23 02:40:55;;;;;;;52.05;30.60;;;;;;;;;;5082186;28;20048;-73
2022/12/23 02:43:41;;;;;;;61.42;31.50;;;;;;;;;;5094044;28;20119;-73
2022/12/23 02:46:19;;;;;;;53.17;30.20;;;;;;;;;;5078116;28;20052;-72
2022/12/23 02:48:50;;;;;;;60.72;35.92;;;;;;;;;;5094430;28;20092;-73
2022/12/23 02:51:16;;;;;;;66.57;35.00;;;;;;;;;;5089112;28;20043;-73
2022/12/23 02:53:50;;;;;;;55.58;30.65;;;;;;;;;;5075520;28;20074;-73
2022/12/23 02:56:18;;;;;;;63.42;33.88;;;;;;;;;;5103058;28;20100;-73
2022/12/23 02:58:46;;;;;;;62.65;31.58;;;;;;;;;;5096101;28;20066;-73
2022/12/23 03:01:14;;;;;;;59.10;30.35;;;;;;;;;;5101572;28;20043;-72
2022/12/23 03:03:41;;;;;;;65.43;35.58;;;;;;;;;;5091185;28;20648;-73
2022/12/23 03:06:14;;;;;;;58.53;33.60;;;;;;;;;;5095195;28;20127;-73
2022/12/23 03:08:42;;;;;;;59.17;31.73;;;;;;;;;;5081278;28;20040;-73
2022/12/23 03:11:10;;;;;;;70.90;34.42;;;;;;;;;;5086305;28;20036;-73
2022/12/23 03:13:48;;;;;;;58.65;34.00;;;;;;;;;;5095924;28;20036;-72
2022/12/23 03:16:28;;;;;;;59.03;32.50;;;;;;;;;;5079493;28;20055;-73
2022/12/23 03:19:05;;;;;;;62.85;34.40;;;;;;;;;;5097973;28;20406;-72
2022/12/23 03:21:39;;;;;;;69.13;35.97;;;;;;;;;;5094286;28;20032;-73
2022/12/23 03:24:14;;;;;;;62.08;33.38;;;;;;;;;;5083980;28;20048;-73
2022/12/23 03:26:53;;;;;;;56.22;30.65;;;;;;;;;;5091751;28;20402;-73
2022/12/23 03:29:41;;;;;;;58.28;32.42;;;;;;;;;;5076430;28;20039;-73
2022/12/23 03:32:09;;;;;;;61.60;32.67;;;;;;;;;;5091088;28;20044;-73
2022/12/23 03:34:37;;;;;;;53.30;30.70;;;;;;;;;;5090126;28;20058;-73
2022/12/23 03:37:05;;;;;;;59.67;30.83;;;;;;;;;;5078089;28;20044;-73
2022/12/23 03:39:35;;;;;;;54.00;28.23;;;;;;;;;;5092876;28;20048;-73
2022/12/23 03:42:05;;;;;;;59.63;29.70;;;;;;;;;;5078219;28;20123;-73
2022/12/23 03:44:37;;;;;;;52.38;27.38;;;;;;;;;;5090655;28;20035;-73
2022/12/23 03:47:10;;;;;;;58.28;27.98;;;;;;;;;;5080454;28;20075;-73
2022/12/23 03:49:41;;;;;;;47.42;26.65;;;;;;;;;;5106423;28;20041;-73
2022/12/23 03:52:10;;;;;;;41.50;24.63;;;;;;;;;;5095426;28;20031;-72
2022/12/23 03:54:38;;;;;;;55.40;27.10;;;;;;;;;;5091888;28;20074;-73
2022/12/23 03:57:06;;;;;;;44.05;25.00;;;;;;;;;;5093121;28;20055;-73
2022/12/23 03:59:36;;;;;;;44.00;26.20;;;;;;;;;;5092574;28;20043;-73
2022/12/23 04:02:22;;;;;;;49.25;26.00;;;;;;;;;;5095393;28;20046;-73
2022/12/23 04:04:48;;;;;;;41.53;23.38;;;;;;;;;;5096389;28;20498;-72
2022/12/23 04:07:27;;;;;;;45.03;24.77;;;;;;;;;;5074235;28;20080;-73
2022/12/23 04:09:53;;;;;;;45.83;25.58;;;;;;;;;;5082073;28;20059;-73
2022/12/23 04:12:24;;;;;;;48.22;24.67;;;;;;;;;;5062476;28;20438;-73
2022/12/23 04:14:51;;;;;;;43.83;22.27;;;;;;;;;;5093199;28;20173;-73
2022/12/23 04:17:17;;;;;;;36.97;20.92;;;;;;;;;;5072468;28;20170;-73
2022/12/23 04:19:44;;;;;;;40.88;23.13;;;;;;;;;;5074054;28;20486;-72
2022/12/23 04:22:11;;;;;;;36.63;23.80;;;;;;;;;;5092822;28;20044;-73
2022/12/23 04:24:38;;;;;;;37.33;20.60;;;;;;;;;;5077793;28;20040;-72
2022/12/23 04:27:05;;;;;;;36.83;20.90;;;;;;;;;;5093706;28;20036;-73
2022/12/23 04:29:31;;;;;;;33.45;20.58;;;;;;;;;;5093413;28;20039;-73
2022/12/23 04:31:57;;;;;;;29.38;17.20;;;;;;;;;;5093608;28;20066;-73
2022/12/23 04:34:23;;;;;;;33.85;20.10;;;;;;;;;;5067477;28;20405;-73
2022/12/23 04:36:49;;;;;;;38.78;20.23;;;;;;;;;;5090870;28;20126;-73
2022/12/23 04:39:15;;;;;;;35.60;20.95;;;;;;;;;;5093227;28;20513;-73
2022/12/23 04:41:41;;;;;;;32.95;19.83;;;;;;;;;;5076920;28;20064;-73
2022/12/23 04:44:07;;;;;;;31.38;17.88;;;;;;;;;;5082756;28;20043;-73
2022/12/23 04:46:34;;;;;;;31.65;17.80;;;;;;;;;;5079411;28;20044;-73
2022/12/23 04:49:00;;;;;;;29.95;17.00;;;;;;;;;;5078409;28;20032;-72
2022/12/23 04:51:26;;;;;;;28.98;16.80;;;;;;;;;;5085663;28;20505;-73
2022/12/23 04:53:52;;;;;;;29.05;15.13;;;;;;;;;;5058398;28;20066;-73
2022/12/23 04:56:18;;;;;;;47.63;17.20;;;;;;;;;;5076582;28;20035;-72
2022/12/23 04:58:44;;;;;;;29.25;15.65;;;;;;;;;;5096323;28;20035;-73
2022/12/23 05:01:11;;;;;;;23.80;13.82;;;;;;;;;;5090320;28;20092;-73
2022/12/23 05:03:38;;;;;;;52.97;20.75;;;;;;;;;;5077403;28;20065;-73
2022/12/23 05:06:04;;;;;;;38.45;20.02;;;;;;;;;;5098334;28;20059;-73
2022/12/23 05:08:30;;;;;;;39.42;17.23;;;;;;;;;;5107259;27;20074;-73
2022/12/23 05:10:56;;;;;;;30.42;17.80;;;;;;;;;;5094002;28;20035;-73
2022/12/23 05:13:23;;;;;;;28.92;18.48;;;;;;;;;;5089734;28;21303;-73
2022/12/23 05:15:50;;;;;;;38.17;19.90;;;;;;;;;;5081554;28;20056;-73
2022/12/23 05:18:16;;;;;;;44.10;20.65;;;;;;;;;;5105212;28;20039;-73
2022/12/23 05:20:42;;;;;;;75.57;26.38;;;;;;;;;;5092626;28;20501;-73
2022/12/23 05:23:09;;;;;;;39.65;21.38;;;;;;;;;;5096706;28;20043;-73
2022/12/23 05:25:36;;;;;;;46.05;20.30;;;;;;;;;;5062886;28;20047;-73
2022/12/23 05:28:02;;;;;;;37.80;20.38;;;;;;;;;;5091330;28;20032;-73
2022/12/23 05:30:28;;;;;;;40.47;21.30;;;;;;;;;;5092346;28;20625;-73
2022/12/23 05:32:55;;;;;;;35.92;20.58;;;;;;;;;;5088118;28;20032;-72
2022/12/23 05:35:22;;;;;;;44.13;20.23;;;;;;;;;;5085194;28;20036;-73
2022/12/23 05:37:48;;;;;;;52.38;22.48;;;;;;;;;;5076545;28;20146;-73
2022/12/23 05:40:14;;;;;;;31.55;19.15;;;;;;;;;;5091613;28;20046;-73
2022/12/23 05:42:40;;;;;;;51.47;19.52;;;;;;;;;;5090377;28;20051;-73
2022/12/23 05:45:07;;;;;;;54.10;19.63;;;;;;;;;;5105310;27;20047;-73
2022/12/23 05:47:33;;;;;;;37.50;18.85;;;;;;;;;;5088448;28;20554;-73
2022/12/23 05:49:59;;;;;;;54.90;20.88;;;;;;;;;;5089287;28;20123;-73
2022/12/23 05:52:25;;;;;;;83.28;23.15;;;;;;;;;;5095322;28;20032;-73
2022/12/23 05:54:51;;;;;;;32.40;16.60;;;;;;;;;;5093898;28;20129;-73
2022/12/23 05:57:18;;;;;;;39.75;18.88;;;;;;;;;;5089310;28;20047;-73
2022/12/23 05:59:44;;;;;;;48.60;18.88;;;;;;;;;;5083573;28;20490;-73
2022/12/23 06:02:10;;;;;;;37.45;18.55;;;;;;;;;;5087682;28;20440;-73
2022/12/23 06:04:36;;;;;;;42.90;19.30;;;;;;;;;;5089392;28;20051;-73
2022/12/23 06:07:02;;;;;;;62.60;22.92;;;;;;;;;;5087985;28;20044;-73
2022/12/23 06:09:28;;;;;;;33.05;17.60;;;;;;;;;;5073375;28;20459;-73
2022/12/23 06:11:54;;;;;;;29.95;16.95;;;;;;;;;;5063827;28;20033;-73
2022/12/23 06:14:21;;;;;;;68.18;21.48;;;;;;;;;;5065418;28;20413;-72
2022/12/23 06:16:47;;;;;;;78.53;20.67;;;;;;;;;;5078653;28;20075;-72
2022/12/23 06:19:13;;;;;;;27.42;14.65;;;;;;;;;;5064881;28;20037;-71
2022/12/23 06:21:39;;;;;;;36.17;16.70;;;;;;;;;;5082435;28;20037;-73
2022/12/23 06:24:05;;;;;;;28.95;16.98;;;;;;;;;;5091790;28;20032;-73
2022/12/23 06:26:32;;;;;;;67.35;21.00;;;;;;;;;;5086958;28;20506;-73
2022/12/23 06:28:58;;;;;;;126.20;24.98;;;;;;;;;;5085285;28;20047;-73
2022/12/23 06:31:24;;;;;;;35.70;15.65;;;;;;;;;;5070612;28;20035;-73
2022/12/23 06:33:51;;;;;;;32.20;15.35;;;;;;;;;;5085201;28;20047;-73
2022/12/23 06:36:17;;;;;;;21.60;13.13;;;;;;;;;;5066157;28;20125;-73
2022/12/23 06:38:43;;;;;;;25.05;15.02;;;;;;;;;;5083934;28;20500;-72
2022/12/23 06:41:09;;;;;;;39.17;15.63;;;;;;;;;;5087235;28;20040;-73
2022/12/23 06:43:35;;;;;;;24.73;13.98;;;;;;;;;;5100527;28;20028;-73
2022/12/23 06:46:01;;;;;;;23.42;13.73;;;;;;;;;;5081869;28;20052;-72
2022/12/23 06:48:27;;;;;;;23.83;14.30;;;;;;;;;;5079346;28;20306;-73
2022/12/23 06:50:53;;;;;;;22.25;13.38;;;;;;;;;;5082480;28;20525;-73
2022/12/23 06:53:20;;;;;;;20.63;13.48;;;;;;;;;;5088457;28;20119;-73
2022/12/23 06:55:46;;;;;;;24.42;14.80;;;;;;;;;;5063615;28;20048;-72
2022/12/23 06:58:12;;;;;;;25.52;13.55;;;;;;;;;;5085716;28;20054;-73
2022/12/23 07:00:38;;;;;;;20.08;11.85;;;;;;;;;;5074888;28;20052;-73
2022/12/23 07:03:04;;;;;;;23.88;14.02;;;;;;;;;;5104813;27;20076;-73
2022/12/23 07:05:30;;;;;;;22.50;13.48;;;;;;;;;;5061005;28;20118;-73
2022/12/23 07:07:57;;;;;;;25.25;13.27;;;;;;;;;;5089807;28;20050;-73
2022/12/23 07:10:23;;;;;;;23.38;12.65;;;;;;;;;;5078776;28;20086;-73
2022/12/23 07:12:49;;;;;;;20.10;12.50;;;;;;;;;;5108771;28;20036;-73
2022/12/23 07:15:15;;;;;;;21.58;12.93;;;;;;;;;;5093690;28;20048;-73
2022/12/23 07:17:41;;;;;;;23.15;13.30;;;;;;;;;;5094180;28;22173;-73
2022/12/23 07:20:08;;;;;;;20.48;13.15;;;;;;;;;;5094179;28;20378;-73
2022/12/23 07:22:34;;;;;;;21.33;12.75;;;;;;;;;;5098700;28;20106;-73
2022/12/23 07:25:00;;;;;;;19.88;11.82;;;;;;;;;;5102451;28;20115;-72
2022/12/23 07:27:26;;;;;;;17.23;12.23;;;;;;;;;;5077615;28;20143;-72
2022/12/23 07:29:53;;;;;;;22.10;12.68;;;;;;;;;;5092696;28;20139;-73
2022/12/23 07:32:19;;;;;;;16.45;11.40;;;;;;;;;;5096822;28;20035;-73
2022/12/23 07:34:45;;;;;;;21.00;12.50;;;;;;;;;;5071600;28;20040;-72
2022/12/23 07:37:11;;;;;;;17.75;10.35;;;;;;;;;;5085048;28;20409;-73
2022/12/23 07:39:37;;;;;;;19.20;12.05;;;;;;;;;;5080501;28;20036;-73
2022/12/23 07:42:03;;;;;;;17.90;11.55;;;;;;;;;;5105213;28;20474;-73
2022/12/23 07:44:29;;;;;;;17.48;11.55;;;;;;;;;;5101889;28;20035;-73
2022/12/23 07:46:56;;;;;;;23.05;12.45;;;;;;;;;;5069925;28;20044;-73
2022/12/23 07:49:22;;;;;;;21.42;12.27;;;;;;;;;;5108366;27;20036;-73
2022/12/23 07:51:48;;;;;;;17.85;11.77;;;;;;;;;;5091602;28;20044;-73
2022/12/23 07:54:14;;;;;;;16.00;9.90;;;;;;;;;;5094503;28;20406;-73
2022/12/23 07:56:40;;;;;;;20.25;11.70;;;;;;;;;;5079210;28;20059;-73
2022/12/23 07:59:07;;;;;;;17.42;10.52;;;;;;;;;;5088998;28;20482;-73
2022/12/23 08:01:33;;;;;;;17.05;10.70;;;;;;;;;;5093195;28;20043;-73
2022/12/23 08:03:59;;;;;;;18.30;10.35;;;;;;;;;;5086979;28;20040;-73
2022/12/23 08:06:25;;;;;;;20.48;10.80;;;;;;;;;;5095539;28;20495;-73
2022/12/23 08:08:51;;;;;;;14.45;9.25;;;;;;;;;;5090822;28;20036;-73
2022/12/23 08:11:17;;;;;;;18.30;11.55;;;;;;;;;;5092071;28;20048;-73
2022/12/23 08:13:44;;;;;;;16.08;10.90;;;;;;;;;;5088354;28;20032;-73
2022/12/23 08:16:12;;;;;;;17.05;11.48;;;;;;;;;;5088825;28;20562;-73
2022/12/23 08:18:39;;;;;;;21.25;11.43;;;;;;;;;;5089730;28;20075;-73
2022/12/23 08:21:11;;;;;;;20.73;12.35;;;;;;;;;;5067935;28;20044;-73
2022/12/23 08:23:37;;;;;;;17.15;10.68;;;;;;;;;;5089107;28;20036;-73
2022/12/23 08:26:11;;;;;;;22.80;12.55;;;;;;;;;;5092560;28;20044;-73
2022/12/23 08:28:37;;;;;;;17.33;11.27;;;;;;;;;;5095706;27;20094;-73
2022/12/23 08:31:05;;;;;;;19.77;12.15;;;;;;;;;;5080577;28;20092;-73
2022/12/23 08:33:31;;;;;;;20.55;12.32;;;;;;;;;;5089623;28;20405;-73
2022/12/23 08:35:57;;;;;;;24.63;12.30;;;;;;;;;;5073229;28;20051;-71
2022/12/23 08:38:24;;;;;;;18.75;11.55;;;;;;;;;;5074068;28;20448;-73
2022/12/23 08:40:50;;;;;;;23.48;12.32;;;;;;;;;;5108289;27;20047;-73
2022/12/23 08:43:16;;;;;;;20.60;11.05;;;;;;;;;;5074883;28;20032;-73
2022/12/23 08:45:42;;;;;;;17.20;11.52;;;;;;;;;;5091190;28;20032;-73
2022/12/23 08:48:08;;;;;;;20.40;11.88;;;;;;;;;;5089570;28;20101;-73
2022/12/23 08:50:38;;;;;;;19.83;12.30;;;;;;;;;;5089487;28;20039;-73
2022/12/23 08:53:05;;;;;;;23.52;12.52;;;;;;;;;;5093593;28;20036;-73
2022/12/23 08:55:36;;;;;;;16.67;12.18;;;;;;;;;;5090873;28;20412;-73
2022/12/23 08:58:02;;;;;;;19.23;12.13;;;;;;;;;;5086517;28;20043;-73
2022/12/23 09:00:28;;;;;;;20.13;13.02;;;;;;;;;;5088944;28;20122;-73
2022/12/23 09:02:54;;;;;;;22.33;13.32;;;;;;;;;;5097808;28;20039;-73
2022/12/23 09:05:20;;;;;;;25.75;14.23;;;;;;;;;;5089702;28;20119;-72
2022/12/23 09:07:46;;;;;;;22.55;11.80;;;;;;;;;;5060455;28;20036;-73
2022/12/23 09:10:12;;;;;;;22.45;12.52;;;;;;;;;;5078614;28;20047;-73
2022/12/23 09:12:38;;;;;;;20.98;12.52;;;;;;;;;;5095743;28;20477;-73
2022/12/23 09:15:05;;;;;;;24.13;13.63;;;;;;;;;;5090807;28;20087;-73
2022/12/23 09:17:31;;;;;;;18.25;12.40;;;;;;;;;;5072011;28;20457;-71
2022/12/23 09:19:57;;;;;;;26.45;14.30;;;;;;;;;;5060836;28;20127;-73
2022/12/23 09:22:23;;;;;;;20.92;11.88;;;;;;;;;;5070912;28;20039;-73
2022/12/23 09:24:49;;;;;;;25.40;13.80;;;;;;;;;;5089947;28;20043;-73
2022/12/23 09:27:15;;;;;;;25.88;14.15;;;;;;;;;;5076169;28;20044;-73
2022/12/23 09:29:42;;;;;;;19.98;12.27;;;;;;;;;;5072211;28;20051;-73
2022/12/23 09:32:08;;;;;;;18.40;11.98;;;;;;;;;;5091648;28;20122;-72
2022/12/23 09:34:34;;;;;;;21.42;12.13;;;;;;;;;;5082873;28;20442;-72
2022/12/23 09:37:01;;;;;;;19.25;10.68;;;;;;;;;;5087272;28;20044;-73
2022/12/23 09:39:28;;;;;;;18.23;9.93;;;;;;;;;;5074819;28;20058;-73
2022/12/23 09:42:06;;;;;;;20.65;10.43;;;;;;;;;;5071682;28;20055;-73
2022/12/23 09:44:49;;;;;;;18.83;11.27;;;;;;;;;;5085100;28;20039;-73
2022/12/23 09:47:17;;;;;;;17.33;9.45;;;;;;;;;;5085311;28;20089;-73
2022/12/23 09:49:46;;;;;;;18.55;9.27;;;;;;;;;;5069215;28;20415;-73
2022/12/23 09:52:14;;;;;;;21.17;9.93;;;;;;;;;;5088798;28;20133;-73
2022/12/23 09:54:44;;;;;;;18.88;9.45;;;;;;;;;;5088318;28;20035;-73
2022/12/23 09:57:21;;;;;;;21.67;9.88;;;;;;;;;;5081575;28;20401;-73
2022/12/23 10:00:07;;;;;;;14.95;8.13;;;;;;;;;;5090194;28;20052;-73
2022/12/23 10:02:33;;;;;;;14.45;7.53;;;;;;;;;;5053921;28;20089;-72
2022/12/23 10:05:34;;;;;;;16.48;8.15;;;8.60;99.90;;;;;;5087030;28;20036;-73
2022/12/23 10:08:03;;;;;;;18.85;8.00;;;;;;;;;;5087889;28;20093;-73
2022/12/23 10:10:38;;;;;;;14.52;7.43;;;;;;;;;;5082331;28;20489;-72
2022/12/23 10:13:05;;;;;;;14.18;7.93;;;;;;;;;;5067724;28;20044;-73
2022/12/23 10:15:37;;;;;;;18.52;8.27;;;;;;;;;;5067035;28;20099;-73
2022/12/23 10:18:07;;;;;;;11.57;7.22;;;;;;;;;;5067402;28;20055;-73
2022/12/23 10:20:38;;;;;;;11.77;5.93;;;;;;;;;;5079615;28;20360;-73
2022/12/23 10:23:08;;;;;;;17.60;7.22;;;;;;;;;;5055478;28;20216;-72
2022/12/23 10:25:38;;;;;;;15.60;6.82;;;;;;;;;;5070007;28;20051;-73
2022/12/23 10:28:04;;;;;;;15.80;8.43;;;;;;;;;;5068135;28;20060;-73
2022/12/23 10:30:32;;;;;;;12.57;6.35;;;;;;;;;;5070925;28;20032;-73
2022/12/23 10:33:12;;;;;;;10.30;6.38;;;;;;;;;;5073397;28;20089;-73
2022/12/23 10:35:45;;;;;;;12.82;6.47;;;;;;;;;;5077392;28;20123;-73
2022/12/23 10:38:14;;;;;;;10.27;6.00;;;;;;;;;;5072687;28;20036;-73
2022/12/23 10:40:47;;;;;;;9.85;5.20;;;;;;;;;;5072980;28;20107;-73
2022/12/23 10:43:33;;;;;;;11.85;5.97;;;;;;;;;;5074108;28;20038;-73
2022/12/23 10:46:09;;;;;;;14.50;6.72;;;;;;;;;;5100041;28;20514;-73
2022/12/23 10:48:58;;;;;;;13.90;6.45;;;;;;;;;;5078803;28;20512;-73
2022/12/23 10:51:24;;;;;;;13.85;7.10;;;;;;;;;;5071838;28;20110;-73
2022/12/23 10:53:50;;;;;;;14.40;7.10;;;;;;;;;;5070905;28;20128;-73
2022/12/23 10:56:17;;;;;;;11.43;7.50;;;;;;;;;;5070874;28;20516;-73
2022/12/23 10:58:45;;;;;;;13.30;6.80;;;7.10;99.90;;;;;;5079306;28;20062;-73
2022/12/23 11:01:13;;;;;;;11.45;7.57;;;7.30;99.90;;;;;;5068813;28;20040;-73
2022/12/23 11:04:02;;;;;;;12.10;7.32;;;7.30;99.90;;;;;;5064752;28;20037;-72
2022/12/23 11:06:28;;;;;;;12.73;5.80;;;7.30;99.90;;;;;;5073169;28;20557;-73
2022/12/23 11:08:56;;;;;;;10.77;7.05;;;7.30;99.90;;;;;;5072960;28;20105;-73
2022/12/23 11:11:22;;;;;;;14.80;7.40;;;7.30;99.90;;;;;;5071510;28;20036;-73
2022/12/23 11:13:49;;;;;;;14.20;7.82;;;7.30;99.90;;;;;;5081777;28;20086;-73
2022/12/23 11:16:22;;;;;;;14.15;7.55;;;7.30;99.90;;;;;;5094127;28;20480;-73
2022/12/23 11:19:04;;;;;;;12.85;7.25;;;7.40;99.90;;;;;;5092643;28;20054;-73
2022/12/23 11:21:32;;;;;;;12.98;7.70;;;7.40;99.90;;;;;;5086642;28;20059;-73
2022/12/23 11:24:16;;;;;;;12.13;7.03;;;7.40;99.90;;;;;;5076291;28;20061;-72
2022/12/23 11:26:57;;;;;;;14.65;7.50;;;7.40;99.90;;;;;;5091118;28;20044;-73
2022/12/23 11:29:37;;;;;;;13.15;7.13;;;7.40;99.90;;;;;;5088842;28;20032;-73
2022/12/23 11:32:26;;;;;;;13.65;7.78;;;7.40;99.90;;;;;;5091332;28;20206;-73
2022/12/23 11:34:54;;;;;;;11.18;6.80;;;7.40;99.90;;;;;;5074155;28;20044;-71
2022/12/23 11:37:34;;;;;;;15.98;7.60;;;7.40;99.90;;;;;;5077445;28;20468;-73
2022/12/23 11:40:00;;;;;;;18.38;9.95;;;7.40;99.90;;;;;;5086849;28;20039;-73
2022/12/23 11:42:31;;;;;;;19.23;11.05;;;7.50;99.90;;;;;;5085998;28;20063;-73
2022/12/23 11:44:59;;;;;;;19.88;10.85;;;7.40;99.90;;;;;;5093812;28;20554;-73
2022/12/23 11:47:25;;;;;;;20.92;11.50;;;7.50;99.90;;;;;;5089362;28;20043;-73
2022/12/23 11:49:53;;;;;;;22.33;12.65;;;7.50;99.90;;;;;;5090173;28;20505;-73
2022/12/23 11:52:27;;;;;;;21.27;12.90;;;7.50;99.90;;;;;;5073002;28;20044;-73
2022/12/23 11:55:01;;;;;;;23.58;13.32;;;7.50;99.90;;;;;;5088060;28;20035;-73
2022/12/23 11:57:44;;;;;;;19.00;12.30;;;7.50;99.90;;;;;;5070854;28;20047;-73
2022/12/23 12:00:19;;;;;;;26.13;13.55;;;7.50;99.90;;;;;;5089288;28;20036;-73
2022/12/23 12:02:51;;;;;;;23.73;12.95;;;7.50;99.90;;;;;;5074472;28;20082;-73
2022/12/23 12:05:36;;;;;;;28.95;16.52;;;7.40;99.90;;;;;;5071885;28;20036;-73
2022/12/23 12:08:10;;;;;;;31.08;14.60;;;7.40;99.90;;;;;;5088300;28;20032;-73
2022/12/23 12:10:38;;;;;;;30.75;15.05;;;7.50;99.90;;;;;;5087017;28;20032;-71
2022/12/23 12:13:07;;;;;;;25.98;13.65;;;7.50;99.90;;;;;;5072949;28;20044;-73
2022/12/23 12:15:45;;;;;;;22.75;13.43;;;7.50;99.90;;;;;;5091611;28;20083;-73
2022/12/23 12:18:16;;;;;;;27.23;14.68;;;7.40;99.90;;;;;;5093789;28;20150;-73
2022/12/23 12:20:49;;;;;;;29.17;17.08;;;7.40;99.90;;;;;;5074845;28;20044;-73
2022/12/23 12:23:41;;;;;;;29.40;14.88;;;7.50;99.90;;;;;;5074549;28;20500;-73
2022/12/23 12:26:14;;;;;;;25.52;14.65;;;7.50;99.90;;;;;;5085289;28;20041;-73
2022/12/23 12:28:43;;;;;;;29.70;14.63;;;7.50;99.90;;;;;;5083763;28;20437;-73
2022/12/23 12:31:30;;;;;;;27.15;14.85;;;7.50;99.90;;;;;;5073656;28;20403;-72
2022/12/23 12:34:28;;;;;;;27.13;14.82;;;7.50;99.90;;;;;;5082912;28;20041;-71
2022/12/23 12:37:07;;;;;;;25.40;16.50;;;7.50;99.90;;;;;;5053522;28;20150;-73
2022/12/23 12:39:44;;;;;;;25.30;13.75;;;7.50;99.90;;;;;;5085640;28;20024;-73
2022/12/23 12:42:33;;;;;;;22.40;12.85;;;7.50;99.90;;;;;;5090226;28;20413;-73
2022/12/23 12:45:27;;;;;;;24.30;14.82;;;7.50;99.90;;;;;;5073654;28;20380;-72
2022/12/23 12:47:56;;;;;;;;;;;7.50;99.90;;;;;;5075771;28;20086;-73
2022/12/23 12:50:40;;;;;;;21.35;11.95;;;7.40;99.90;;;;;;5097251;28;20310;-73
2022/12/23 12:53:17;;;;;;;27.58;15.48;;;7.40;99.90;;;;;;5094400;28;20051;-73
2022/12/23 12:55:49;;;;;;;24.55;14.90;;;7.50;99.90;;;;;;5082509;28;20494;-73
2022/12/23 12:58:21;;;;;;;24.17;14.05;;;7.40;99.90;;;;;;5085629;28;20040;-73
2022/12/23 13:01:29;;;;;;;25.45;14.25;;;7.40;99.90;;;;;;5089112;28;20044;-73
2022/12/23 13:04:23;;;;;;;20.02;12.63;;;7.40;99.90;;;;;;5071766;28;20055;-73
2022/12/23 13:07:27;;;;;;;23.90;12.50;;;7.40;99.90;;;;;;5084737;28;20043;-73
2022/12/23 13:10:05;;;;;;;;;;;7.40;99.90;;;;;;4968939;28;20046;-73
2022/12/23 13:12:53;;;;;;;28.38;14.23;;;7.40;99.90;;;;;;5074190;28;19923;-74
2022/12/23 13:15:47;;;;;;;25.58;14.23;;;7.40;99.90;;;;;;5083193;28;20128;-73
2022/12/23 13:18:37;;;;;;;25.02;14.82;;;7.40;99.90;;;;;;5073310;28;20440;-73
2022/12/23 13:21:29;;;;;;;28.23;15.63;;;7.40;99.90;;;;;;5080085;28;20121;-73
2022/12/23 13:24:01;;;;;;;23.67;13.32;;;7.40;99.90;;;;;;5085761;28;20294;-73
2022/12/23 13:26:44;;;;;;;26.20;14.23;;;7.40;99.90;;;;;;5094750;28;20071;-73
2022/12/23 13:29:15;;;;;;;23.73;13.93;;;7.40;99.90;;;;;;5065644;28;20047;-73
2022/12/23 13:31:52;;;;;;;25.27;12.85;;;7.40;99.90;;;;;;5090279;28;20054;-72
2022/12/23 13:34:32;;;;;;;23.05;13.93;;;7.40;99.90;;;;;;5087204;28;20063;-73
2022/12/23 13:37:31;;;;;;;26.50;12.70;;;7.40;99.90;;;;;;5086466;28;20049;-73
2022/12/23 13:40:16;;;;;;;20.90;12.05;;;7.40;99.90;;;;;;5090865;28;20048;-73
2022/12/23 13:42:48;;;;;;;20.38;11.73;;;7.40;99.90;;;;;;5083739;28;20036;-73
2022/12/23 13:45:17;;;;;;;23.40;10.32;;;7.40;99.90;;;;;;5085969;28;20047;-73
2022/12/23 13:48:00;;;;;;;17.25;10.25;;;7.40;99.90;;;;;;5070119;28;20040;-73
2022/12/23 13:50:49;;;;;;;21.75;11.75;;;7.40;99.90;;;;;;5087934;28;20058;-73
2022/12/23 13:53:28;;;;;;;20.88;10.38;;;7.40;99.90;;;;;;5070206;28;20044;-73
2022/12/23 13:56:17;;;;;;;23.23;11.23;;;7.40;99.90;;;;;;5083965;28;20092;-73
2022/12/23 13:58:47;;;;;;;15.55;9.30;;;7.40;99.90;;;;;;5093156;27;20074;-73
2022/12/23 14:01:16;;;;;;;21.65;11.27;;;7.40;99.90;;;;;;5105774;27;20048;-73
2022/12/23 14:03:43;;;;;;;19.08;10.68;;;7.30;99.90;;;;;;5071416;28;20111;-73
2022/12/23 14:06:23;;;;;;;17.60;10.23;;;7.40;99.90;;;;;;5089303;28;20051;-73
2022/12/23 14:08:51;;;;;;;22.48;11.00;;;7.30;99.90;;;;;;5084313;28;20040;-73
2022/12/23 14:11:25;;;;;;;21.65;11.30;;;7.30;99.90;;;;;;5087001;28;20033;-73
2022/12/23 14:13:54;;;;;;;18.88;9.85;;;7.30;99.90;;;;;;5084925;28;20097;-73
2022/12/23 14:16:20;;;;;;;15.10;9.60;;;7.30;99.90;;;;;;5087861;28;20505;-73
2022/12/23 14:19:04;;;;;;;21.73;11.50;;;7.30;99.90;;;;;;5087156;28;20051;-73
2022/12/23 14:22:18;;;;;;;21.88;10.45;;;7.30;99.90;;;;;;5090705;28;20040;-73
2022/12/23 14:24:49;;;;;;;20.52;11.07;;;7.30;99.90;;;;;;5005729;28;20049;-72
2022/12/23 14:27:33;;;;;;;19.40;10.60;;;7.30;99.90;;;;;;5092854;28;20047;-73
2022/12/23 14:30:21;;;;;;;16.70;9.98;;;7.30;99.90;;;;;;5087522;28;20591;-73
2022/12/23 14:32:58;;;;;;;19.05;9.77;;;7.30;99.90;;;;;;5070231;28;20045;-73
2022/12/23 14:35:46;;;;;;;25.52;11.23;;;7.30;99.90;;;;;;5091463;28;20500;-73